createdAt,value
2023-01-17T00:01:10.057Z,57.80
2023-01-17T00:03:54.660Z,57.84
2023-01-17T00:06:43.147Z,57.56
2023-01-17T00:09:32.391Z,57.34
2023-01-17T00:12:03.199Z,57.58
2023-01-17T00:14:35.029Z,57.22
2023-01-17T00:17:07.698Z,57.53
2023-01-17T00:19:56.365Z,57.40
2023-01-17T00:22:45.925Z,57.67
2023-01-17T00:25:35.086Z,57.92
2023-01-17T00:28:05.628Z,57.80
2023-01-17T00:30:35.409Z,58.20
2023-01-17T00:33:05.112Z,57.94
2023-01-17T00:35:35.689Z,57.83
2023-01-17T00:38:07.184Z,57.44
2023-01-17T00:40:40.123Z,57.69
2023-01-17T00:43:30.021Z,57.81
2023-01-17T00:46:18.287Z,57.52
2023-01-17T00:49:06.618Z,57.61
2023-01-17T00:51:55.719Z,57.64
2023-01-17T00:54:44.218Z,57.55
2023-01-17T00:57:32.512Z,57.60
2023-01-17T01:00:20.942Z,58.04
2023-01-17T01:03:09.003Z,57.89
2023-01-17T01:05:57.469Z,57.64
2023-01-17T01:08:47.678Z,57.99
2023-01-17T01:11:37.478Z,57.61
2023-01-17T01:14:27.768Z,57.99
2023-01-17T01:17:16.070Z,57.63
2023-01-17T01:20:04.561Z,57.92
2023-01-17T01:22:53.484Z,57.66
2023-01-17T01:25:41.806Z,57.24
2023-01-17T01:28:32.024Z,57.20
2023-01-17T01:31:20.630Z,56.84
2023-01-17T01:33:53.030Z,56.68
2023-01-17T01:36:23.509Z,56.84
2023-01-17T01:38:54.249Z,56.83
2023-01-17T01:41:23.676Z,56.70
2023-01-17T01:43:55.744Z,56.55
2023-01-17T01:46:29.535Z,56.38
2023-01-17T01:49:01.999Z,56.26
2023-01-17T01:51:36.903Z,56.19
2023-01-17T01:54:10.149Z,56.92
2023-01-17T01:56:41.428Z,56.91
2023-01-17T01:59:10.902Z,56.87
2023-01-17T02:01:42.466Z,56.71
2023-01-17T02:04:13.441Z,56.83
2023-01-17T02:06:44.518Z,56.99
2023-01-17T02:09:17.047Z,56.95
2023-01-17T02:11:48.502Z,56.72
2023-01-17T02:14:19.942Z,57.05
2023-01-17T02:17:00.097Z,56.93
2023-01-17T02:19:46.938Z,56.87
2023-01-17T02:22:43.891Z,56.61
2023-01-17T02:25:35.284Z,56.55
2023-01-17T02:28:17.688Z,56.47
2023-01-17T02:30:50.126Z,56.57
2023-01-17T02:33:30.222Z,56.52
2023-01-17T02:36:06.233Z,56.38
2023-01-17T02:38:43.521Z,56.69
2023-01-17T02:41:19.372Z,57.00
2023-01-17T02:43:51.301Z,57.02
2023-01-17T02:46:21.700Z,56.93
2023-01-17T02:48:53.539Z,56.74
2023-01-17T02:51:43.934Z,57.13
2023-01-17T02:54:32.890Z,57.06
2023-01-17T02:57:14.962Z,57.07
2023-01-17T02:59:50.667Z,56.96
2023-01-17T03:02:26.264Z,57.30
2023-01-17T03:05:03.778Z,57.29
2023-01-17T03:07:35.069Z,57.32
2023-01-17T03:10:07.484Z,57.50
2023-01-17T03:12:39.947Z,57.65
2023-01-17T03:15:13.835Z,57.80
2023-01-17T03:17:47.473Z,57.75
2023-01-17T03:20:18.960Z,57.85
2023-01-17T03:22:49.299Z,57.71
2023-01-17T03:25:20.109Z,57.71
2023-01-17T03:27:50.516Z,58.08
2023-01-17T03:30:22.781Z,57.82
2023-01-17T03:32:53.583Z,58.04
2023-01-17T03:35:24.534Z,57.71
2023-01-17T03:37:55.216Z,57.73
2023-01-17T03:40:25.777Z,57.93
2023-01-17T03:42:56.516Z,57.78
2023-01-17T03:45:26.882Z,57.79
2023-01-17T03:47:57.572Z,57.95
2023-01-17T03:50:29.846Z,57.96
2023-01-17T03:53:02.493Z,57.86
2023-01-17T03:55:32.929Z,57.94
2023-01-17T03:58:03.545Z,57.96
2023-01-17T04:00:34.429Z,58.03
2023-01-17T04:03:06.497Z,58.19
2023-01-17T04:05:37.781Z,58.19
2023-01-17T04:08:10.402Z,58.00
2023-01-17T04:10:44.528Z,58.40
2023-01-17T04:13:16.897Z,58.52
2023-01-17T04:15:49.980Z,58.04
2023-01-17T04:18:23.114Z,58.10
2023-01-17T04:20:53.769Z,58.32
2023-01-17T04:23:24.275Z,58.47
2023-01-17T04:25:54.723Z,58.40
2023-01-17T04:28:26.102Z,58.37
2023-01-17T04:30:59.821Z,58.36
2023-01-17T04:33:30.356Z,58.76
2023-01-17T04:36:00.870Z,59.50
2023-01-17T04:38:32.046Z,59.47
2023-01-17T04:41:02.842Z,59.86
2023-01-17T04:43:33.405Z,59.82
2023-01-17T04:46:04.772Z,59.56
2023-01-17T04:48:35.507Z,59.63
2023-01-17T04:51:07.249Z,59.24
2023-01-17T04:53:37.684Z,59.17
2023-01-17T04:56:08.678Z,58.72
2023-01-17T04:58:37.756Z,58.75
2023-01-17T05:01:09.813Z,58.21
2023-01-17T05:03:40.430Z,58.20
2023-01-17T05:06:11.279Z,58.09
2023-01-17T05:08:41.826Z,57.80
2023-01-17T05:11:12.333Z,57.48
2023-01-17T05:13:42.696Z,57.42
2023-01-17T05:16:13.332Z,56.80
2023-01-17T05:18:43.800Z,56.57
2023-01-17T05:21:14.414Z,56.15
2023-01-17T05:23:45.478Z,55.60
2023-01-17T05:26:17.370Z,55.59
2023-01-17T05:28:49.081Z,55.34
2023-01-17T05:31:20.153Z,54.98
2023-01-17T05:33:50.916Z,54.21
2023-01-17T05:36:21.332Z,53.59
2023-01-17T05:38:51.787Z,52.99
2023-01-17T05:41:23.089Z,52.76
2023-01-17T05:43:54.071Z,52.56
2023-01-17T05:46:24.930Z,52.40
2023-01-17T05:48:54.112Z,52.12
2023-01-17T05:51:24.876Z,51.87
2023-01-17T05:53:56.120Z,51.36
2023-01-17T05:56:28.171Z,51.20
2023-01-17T05:58:59.122Z,50.77
2023-01-17T06:01:30.212Z,50.54
2023-01-17T06:04:01.531Z,50.34
2023-01-17T06:06:32.238Z,50.09
2023-01-17T06:09:02.878Z,49.54
2023-01-17T06:11:33.521Z,49.36
2023-01-17T06:14:04.701Z,49.28
2023-01-17T06:16:35.959Z,48.72
2023-01-17T06:19:06.702Z,48.02
2023-01-17T06:21:37.529Z,48.08
2023-01-17T06:24:08.879Z,47.63
2023-01-17T06:26:39.508Z,47.81
2023-01-17T06:29:10.939Z,47.16
2023-01-17T06:31:42.123Z,46.68
2023-01-17T06:34:12.971Z,46.75
2023-01-17T06:36:43.612Z,46.58
2023-01-17T06:39:15.230Z,45.95
2023-01-17T06:41:45.918Z,46.28
2023-01-17T06:44:16.401Z,45.83
2023-01-17T06:46:47.427Z,45.58
2023-01-17T06:49:18.087Z,45.74
2023-01-17T06:51:48.482Z,44.74
2023-01-17T06:54:20.495Z,42.51
2023-01-17T06:56:51.286Z,40.24
2023-01-17T06:59:22.069Z,38.00
2023-01-17T07:01:52.768Z,35.68
2023-01-17T07:04:23.212Z,33.45
2023-01-17T07:06:52.406Z,31.78
2023-01-17T07:09:22.844Z,30.45
2023-01-17T07:11:59.305Z,28.92
2023-01-17T07:14:29.872Z,27.69
2023-01-17T07:17:00.457Z,26.57
2023-01-17T07:19:31.077Z,25.37
2023-01-17T07:22:01.996Z,24.83
2023-01-17T07:24:32.825Z,23.74
2023-01-17T07:27:03.209Z,22.78
2023-01-17T07:29:34.201Z,22.50
2023-01-17T07:32:04.900Z,22.07
2023-01-17T07:34:35.435Z,21.32
2023-01-17T07:37:06.405Z,20.12
2023-01-17T07:39:38.015Z,20.24
2023-01-17T07:42:09.019Z,19.88
2023-01-17T07:44:41.390Z,19.66
2023-01-17T07:47:15.447Z,19.22
2023-01-17T07:49:48.590Z,19.00
2023-01-17T07:52:19.593Z,19.17
2023-01-17T07:54:49.909Z,19.44
2023-01-17T07:57:21.764Z,20.13
2023-01-17T07:59:52.951Z,21.28
2023-01-17T08:02:31.516Z,22.17
2023-01-17T08:05:03.235Z,23.11
2023-01-17T08:07:33.965Z,23.92
2023-01-17T08:10:06.481Z,24.51
2023-01-17T08:12:38.247Z,25.22
2023-01-17T08:15:11.618Z,26.03
2023-01-17T08:17:44.077Z,26.72
2023-01-17T08:20:17.801Z,27.46
2023-01-17T08:22:50.304Z,28.20
2023-01-17T08:25:22.234Z,28.52
2023-01-17T08:27:56.930Z,29.40
2023-01-17T08:30:28.734Z,30.23
2023-01-17T08:32:59.587Z,31.31
2023-01-17T08:35:34.340Z,31.72
2023-01-17T08:38:06.632Z,32.35
2023-01-17T08:40:37.303Z,32.82
2023-01-17T08:43:07.652Z,33.34
2023-01-17T08:45:43.684Z,33.69
2023-01-17T08:48:15.020Z,34.05
2023-01-17T08:50:46.183Z,34.37
2023-01-17T08:53:18.254Z,34.78
2023-01-17T08:55:49.607Z,35.45
2023-01-17T08:58:20.166Z,35.94
2023-01-17T09:00:50.976Z,36.22
2023-01-17T09:03:21.665Z,36.26
2023-01-17T09:05:52.465Z,36.50
2023-01-17T09:08:25.647Z,37.12
2023-01-17T09:10:57.031Z,37.42
2023-01-17T09:13:31.094Z,37.74
2023-01-17T09:16:05.073Z,37.93
2023-01-17T09:18:36.280Z,37.86
2023-01-17T09:21:14.535Z,37.99
2023-01-17T09:23:45.594Z,38.16
2023-01-17T09:26:21.757Z,38.56
2023-01-17T09:28:55.380Z,38.48
2023-01-17T09:31:27.347Z,38.54
2023-01-17T09:33:58.575Z,38.90
2023-01-17T09:36:34.091Z,38.93
2023-01-17T09:39:08.453Z,39.10
2023-01-17T09:41:48.057Z,39.10
2023-01-17T09:44:26.638Z,38.95
2023-01-17T09:46:59.603Z,39.19
2023-01-17T09:49:38.602Z,39.73
2023-01-17T09:52:13.312Z,39.89
2023-01-17T09:54:44.399Z,40.11
2023-01-17T09:57:23.431Z,39.96
2023-01-17T10:00:03.528Z,40.38
2023-01-17T10:02:47.226Z,40.17
2023-01-17T10:05:29.595Z,39.85
2023-01-17T10:08:15.373Z,39.37
2023-01-17T10:10:59.147Z,39.25
2023-01-17T10:13:42.276Z,38.83
2023-01-17T10:16:24.782Z,38.61
2023-01-17T10:19:11.718Z,38.49
2023-01-17T10:21:55.794Z,38.51
2023-01-17T10:24:41.215Z,38.69
2023-01-17T10:27:18.255Z,38.63
2023-01-17T10:29:49.723Z,38.78
2023-01-17T10:32:22.497Z,38.95
2023-01-17T10:34:53.894Z,39.20
2023-01-17T10:37:39.996Z,39.41
2023-01-17T10:40:18.804Z,39.27
2023-01-17T10:42:54.501Z,39.18
2023-01-17T10:45:28.963Z,39.23
2023-01-17T10:48:05.752Z,39.39
2023-01-17T10:50:37.146Z,39.68
2023-01-17T10:53:12.026Z,39.54
2023-01-17T10:55:49.883Z,39.53
2023-01-17T10:58:20.142Z,39.47
2023-01-17T11:00:54.160Z,39.44
2023-01-17T11:03:29.355Z,39.64
2023-01-17T11:06:20.687Z,39.85
2023-01-17T11:08:58.543Z,39.74
2023-01-17T11:11:34.968Z,39.85
2023-01-17T11:14:09.302Z,40.14
2023-01-17T11:16:40.723Z,40.18
2023-01-17T11:19:18.971Z,40.49
2023-01-17T11:21:54.268Z,40.72
2023-01-17T11:24:29.577Z,40.51
2023-01-17T11:27:03.229Z,40.14
2023-01-17T11:29:38.047Z,40.19
2023-01-17T11:32:30.932Z,40.35
2023-01-17T11:35:16.744Z,40.04
2023-01-17T11:38:14.410Z,39.93
2023-01-17T11:40:47.956Z,40.24
2023-01-17T11:43:23.210Z,40.36
2023-01-17T11:46:18.326Z,40.78
2023-01-17T11:48:56.189Z,41.01
2023-01-17T11:51:32.923Z,41.33
2023-01-17T11:54:22.950Z,41.65
2023-01-17T11:56:58.832Z,42.26
2023-01-17T11:59:34.905Z,42.75
2023-01-17T12:02:31.438Z,43.19
2023-01-17T12:05:15.084Z,43.23
2023-01-17T12:07:49.776Z,43.37
2023-01-17T12:10:24.597Z,43.51
2023-01-17T12:13:30.701Z,43.82
2023-01-17T12:16:26.589Z,44.26
2023-01-17T12:19:11.413Z,44.70
2023-01-17T12:21:46.302Z,44.95
2023-01-17T12:24:35.594Z,45.39
2023-01-17T12:27:12.576Z,45.80
2023-01-17T12:29:48.713Z,45.77
2023-01-17T12:32:42.894Z,46.13
2023-01-17T12:35:18.344Z,46.19
2023-01-17T12:38:03.694Z,46.18
2023-01-17T12:40:39.037Z,46.35
2023-01-17T12:43:14.796Z,46.20
2023-01-17T12:45:46.562Z,45.89
2023-01-17T12:48:19.666Z,46.11
2023-01-17T12:50:53.478Z,46.10
2023-01-17T12:53:30.200Z,46.12
2023-01-17T12:56:02.514Z,46.41
2023-01-17T12:58:49.742Z,46.50
2023-01-17T13:01:24.842Z,46.54
2023-01-17T13:04:04.641Z,46.49
2023-01-17T13:06:49.093Z,46.69
2023-01-17T13:09:21.616Z,46.57
2023-01-17T13:11:54.538Z,46.72
2023-01-17T13:14:25.131Z,46.76
2023-01-17T13:16:58.727Z,46.75
2023-01-17T13:19:35.279Z,46.97
2023-01-17T13:22:07.944Z,46.83
2023-01-17T13:24:44.398Z,47.18
2023-01-17T13:27:31.628Z,47.39
2023-01-17T13:30:24.436Z,47.78
2023-01-17T13:33:09.903Z,47.66
2023-01-17T13:35:43.670Z,47.51
2023-01-17T13:38:25.615Z,47.62
2023-01-17T13:40:58.166Z,47.95
2023-01-17T13:43:30.763Z,48.35
2023-01-17T13:46:03.905Z,47.89
2023-01-17T13:48:37.897Z,48.20
2023-01-17T13:51:08.688Z,48.72
2023-01-17T13:53:57.610Z,48.16
2023-01-17T13:56:31.009Z,48.42
2023-01-17T13:59:06.684Z,48.66
2023-01-17T14:01:53.911Z,48.95
2023-01-17T14:04:26.325Z,48.85
2023-01-17T14:07:00.834Z,49.21
2023-01-17T14:09:39.679Z,49.20
2023-01-17T14:12:27.827Z,49.34
2023-01-17T14:15:00.400Z,49.22
2023-01-17T14:17:50.633Z,48.82
2023-01-17T14:21:03.020Z,49.61
2023-01-17T14:23:56.522Z,49.09
2023-01-17T14:26:47.737Z,49.44
2023-01-17T14:29:49.605Z,49.55
2023-01-17T14:32:21.900Z,49.44
2023-01-17T14:34:53.746Z,49.97
2023-01-17T14:37:41.339Z,49.93
2023-01-17T14:40:21.657Z,49.84
2023-01-17T14:43:00.009Z,50.35
2023-01-17T14:45:31.787Z,50.28
2023-01-17T14:48:05.622Z,50.88
2023-01-17T14:50:39.359Z,50.41
2023-01-17T14:53:19.991Z,50.42
2023-01-17T14:55:58.927Z,50.59
2023-01-17T14:58:31.332Z,50.46
2023-01-17T15:01:04.228Z,50.51
2023-01-17T15:03:36.479Z,50.66
2023-01-17T15:06:13.293Z,50.82
2023-01-17T15:08:44.112Z,50.96
2023-01-17T15:11:21.323Z,50.97
2023-01-17T15:13:54.773Z,50.99
2023-01-17T15:16:27.105Z,51.46
2023-01-17T15:18:58.434Z,51.33
2023-01-17T15:21:30.657Z,51.24
2023-01-17T15:24:04.617Z,51.82
2023-01-17T15:26:37.593Z,51.52
2023-01-17T15:29:09.306Z,51.48
2023-01-17T15:31:44.214Z,51.53
2023-01-17T15:34:25.557Z,51.72
2023-01-17T15:36:57.759Z,51.86
2023-01-17T15:39:30.777Z,52.17
2023-01-17T15:42:07.070Z,51.96
2023-01-17T15:44:48.147Z,51.75
2023-01-17T15:47:33.140Z,52.01
2023-01-17T15:50:25.529Z,52.26
2023-01-17T15:52:57.815Z,52.69
2023-01-17T15:55:33.150Z,52.58
2023-01-17T15:58:04.651Z,52.68
2023-01-17T16:00:41.830Z,52.57
2023-01-17T16:03:25.025Z,52.76
2023-01-17T16:05:57.490Z,52.89
2023-01-17T16:08:40.059Z,53.06
2023-01-17T16:11:13.277Z,53.15
2023-01-17T16:13:48.174Z,52.77
2023-01-17T16:16:24.166Z,53.26
2023-01-17T16:19:01.701Z,53.17
2023-01-17T16:21:31.607Z,53.29
2023-01-17T16:24:03.347Z,53.10
2023-01-17T16:26:34.379Z,53.56
2023-01-17T16:29:04.998Z,53.50
2023-01-17T16:31:35.913Z,53.47
2023-01-17T16:34:12.238Z,53.60
2023-01-17T16:36:42.512Z,53.62
2023-01-17T16:39:15.850Z,53.68
2023-01-17T16:41:46.590Z,53.67
2023-01-17T16:44:17.246Z,53.69
2023-01-17T16:46:47.850Z,53.85
2023-01-17T16:49:18.555Z,53.86
2023-01-17T16:51:50.062Z,53.74
2023-01-17T16:54:20.677Z,53.63
2023-01-17T16:56:51.003Z,53.59
2023-01-17T16:59:22.591Z,53.79
2023-01-17T17:01:54.949Z,53.91
2023-01-17T17:04:25.333Z,54.00
2023-01-17T17:06:55.783Z,53.93
2023-01-17T17:09:27.347Z,54.22
2023-01-17T17:11:58.414Z,54.04
2023-01-17T17:14:29.594Z,53.86
2023-01-17T17:17:05.776Z,53.76
2023-01-17T17:19:36.520Z,54.13
2023-01-17T17:22:07.109Z,54.31
2023-01-17T17:24:38.994Z,54.47
2023-01-17T17:27:10.047Z,54.31
2023-01-17T17:29:40.985Z,54.53
2023-01-17T17:32:11.385Z,54.50
2023-01-17T17:34:42.544Z,54.75
2023-01-17T17:37:13.601Z,54.69
2023-01-17T17:39:46.370Z,54.51
2023-01-17T17:42:19.789Z,54.58
2023-01-17T17:44:50.656Z,54.45
2023-01-17T17:47:23.850Z,54.67
2023-01-17T17:49:58.115Z,55.09
2023-01-17T17:52:30.459Z,54.74
2023-01-17T17:55:01.296Z,55.06
2023-01-17T17:57:31.742Z,55.14
2023-01-17T18:00:04.052Z,54.94
2023-01-17T18:02:34.642Z,55.02
2023-01-17T18:05:06.180Z,55.21
2023-01-17T18:07:36.839Z,55.36
2023-01-17T18:10:10.795Z,55.14
2023-01-17T18:12:41.442Z,55.07
2023-01-17T18:15:12.100Z,54.99
2023-01-17T18:17:43.124Z,54.96
2023-01-17T18:20:15.416Z,55.03
2023-01-17T18:22:46.408Z,55.07
2023-01-17T18:25:17.451Z,55.00
2023-01-17T18:27:48.218Z,55.22
2023-01-17T18:30:19.463Z,55.18
2023-01-17T18:32:51.411Z,54.86
2023-01-17T18:35:21.991Z,55.04
2023-01-17T18:37:52.734Z,54.93
2023-01-17T18:40:22.661Z,54.87
2023-01-17T18:42:53.926Z,55.07
2023-01-17T18:45:25.053Z,55.21
2023-01-17T18:47:56.207Z,55.29
2023-01-17T18:50:26.790Z,55.53
2023-01-17T18:52:57.235Z,55.59
2023-01-17T18:55:27.915Z,55.58
2023-01-17T18:57:58.247Z,55.63
2023-01-17T19:00:28.827Z,55.80
2023-01-17T19:02:59.328Z,55.86
2023-01-17T19:05:29.795Z,55.89
2023-01-17T19:08:00.322Z,56.20
2023-01-17T19:10:30.943Z,56.09
2023-01-17T19:13:02.428Z,56.23
2023-01-17T19:15:33.354Z,56.34
2023-01-17T19:18:02.450Z,56.63
2023-01-17T19:20:33.598Z,56.73
2023-01-17T19:23:04.779Z,56.78
2023-01-17T19:25:37.777Z,56.79
2023-01-17T19:28:08.941Z,56.95
2023-01-17T19:30:40.540Z,56.89
2023-01-17T19:33:10.860Z,56.77
2023-01-17T19:35:41.651Z,56.88
2023-01-17T19:38:12.902Z,56.88
2023-01-17T19:40:48.068Z,56.83
2023-01-17T19:43:20.582Z,56.92
2023-01-17T19:46:01.223Z,56.94
2023-01-17T19:48:31.689Z,56.97
2023-01-17T19:51:07.481Z,56.81
2023-01-17T19:53:38.338Z,57.17
2023-01-17T19:56:11.535Z,57.09
2023-01-17T19:58:42.992Z,57.18
2023-01-17T20:01:15.373Z,57.30
2023-01-17T20:03:47.045Z,57.22
2023-01-17T20:06:20.241Z,57.08
2023-01-17T20:08:50.656Z,57.27
2023-01-17T20:11:23.107Z,57.26
2023-01-17T20:13:55.769Z,57.50
2023-01-17T20:16:28.009Z,57.25
2023-01-17T20:18:59.363Z,57.47
2023-01-17T20:21:34.252Z,57.64
2023-01-17T20:24:06.877Z,57.60
2023-01-17T20:26:37.517Z,57.67
2023-01-17T20:29:11.586Z,57.86
2023-01-17T20:31:42.943Z,57.95
2023-01-17T20:34:14.271Z,57.81
2023-01-17T20:36:46.685Z,57.76
2023-01-17T20:39:17.868Z,57.88
2023-01-17T20:41:51.092Z,57.93
2023-01-17T20:44:22.895Z,58.01
2023-01-17T20:46:53.277Z,58.18
2023-01-17T20:49:24.234Z,58.20
2023-01-17T20:51:53.604Z,58.17
2023-01-17T20:54:25.030Z,58.38
2023-01-17T20:56:58.677Z,58.56
2023-01-17T20:59:29.921Z,58.63
2023-01-17T21:02:01.040Z,58.55
2023-01-17T21:04:32.334Z,58.71
2023-01-17T21:07:03.572Z,58.72
2023-01-17T21:09:34.038Z,58.60
2023-01-17T21:12:06.013Z,59.07
2023-01-17T21:14:41.909Z,59.08
2023-01-17T21:17:16.242Z,58.91
2023-01-17T21:19:48.713Z,58.73
2023-01-17T21:22:20.411Z,58.91
2023-01-17T21:24:54.054Z,58.80
2023-01-17T21:27:24.521Z,58.71
2023-01-17T21:29:57.139Z,58.72
2023-01-17T21:32:29.392Z,58.73
2023-01-17T21:35:01.307Z,58.86
2023-01-17T21:37:33.310Z,58.87
2023-01-17T21:40:07.678Z,58.86
2023-01-17T21:42:38.433Z,58.75
2023-01-17T21:45:10.905Z,58.98
2023-01-17T21:47:44.615Z,59.06
2023-01-17T21:50:33.032Z,59.06
2023-01-17T21:53:05.650Z,58.99
2023-01-17T21:55:53.613Z,58.68
2023-01-17T21:58:43.282Z,59.04
2023-01-17T22:01:17.624Z,58.81
2023-01-17T22:03:51.423Z,58.81
2023-01-17T22:06:24.095Z,58.96
2023-01-17T22:08:55.115Z,58.87
2023-01-17T22:11:24.649Z,58.85
2023-01-17T22:13:58.071Z,59.00
2023-01-17T22:16:35.235Z,58.81
2023-01-17T22:19:06.220Z,58.47
2023-01-17T22:21:49.613Z,58.48
2023-01-17T22:24:23.428Z,58.57
2023-01-17T22:26:56.947Z,58.62
2023-01-17T22:29:27.404Z,58.74
2023-01-17T22:31:58.002Z,58.43
2023-01-17T22:34:29.339Z,58.54
2023-01-17T22:37:00.709Z,58.31
2023-01-17T22:39:32.115Z,58.52
2023-01-17T22:42:02.954Z,58.53
2023-01-17T22:44:33.716Z,58.61
2023-01-17T22:47:05.487Z,58.71
2023-01-17T22:49:40.781Z,59.05
2023-01-17T22:52:14.512Z,58.95
2023-01-17T22:54:45.267Z,59.18
2023-01-17T22:57:16.136Z,59.19
2023-01-17T22:59:46.668Z,59.62
2023-01-17T23:02:18.235Z,59.53
2023-01-17T23:04:49.479Z,59.60
2023-01-17T23:07:20.422Z,59.64
2023-01-17T23:09:51.058Z,59.52
2023-01-17T23:12:21.554Z,59.76
2023-01-17T23:15:09.597Z,59.46
2023-01-17T23:17:58.224Z,59.59
2023-01-17T23:20:27.534Z,59.67
2023-01-17T23:22:58.571Z,59.67
2023-01-17T23:25:30.102Z,59.79
2023-01-17T23:28:11.385Z,59.57
2023-01-17T23:30:42.790Z,59.65
2023-01-17T23:33:14.945Z,59.44
2023-01-17T23:35:46.804Z,59.80
2023-01-17T23:38:28.594Z,59.83
2023-01-17T23:41:21.929Z,60.30
2023-01-17T23:43:53.621Z,59.99
2023-01-17T23:46:25.458Z,60.31
2023-01-17T23:48:56.039Z,60.07
2023-01-17T23:51:26.493Z,60.13
2023-01-17T23:54:05.086Z,59.64
2023-01-17T23:56:36.197Z,60.03
2023-01-17T23:59:08.055Z,59.69
